sensor_id;sensor_type;location;lat;lon;timestamp;P1;durP1;ratioP1;P2;durP2;ratioP2
5608;SDS011;2826;51.354;9.588;2023-04-15T00:01:34;9.33;;;5.93;;
5608;SDS011;2826;51.354;9.588;2023-04-15T00:04:02;8.47;;;6.47;;
5608;SDS011;2826;51.354;9.588;2023-04-15T00:06:29;6.87;;;5.63;;
5608;SDS011;2826;51.354;9.588;2023-04-15T00:08:56;7.80;;;5.87;;
5608;SDS011;2826;51.354;9.588;2023-04-15T00:11:23;7.43;;;5.63;;
5608;SDS011;2826;51.354;9.588;2023-04-15T00:13:50;6.50;;;5.00;;
5608;SDS011;2826;51.354;9.588;2023-04-15T00:16:17;7.73;;;5.77;;
5608;SDS011;2826;51.354;9.588;2023-04-15T00:18:44;9.10;;;5.90;;
5608;SDS011;2826;51.354;9.588;2023-04-15T00:21:11;6.70;;;5.20;;
5608;SDS011;2826;51.354;9.588;2023-04-15T00:23:38;8.93;;;5.70;;
5608;SDS011;2826;51.354;9.588;2023-04-15T00:26:05;8.70;;;5.50;;
5608;SDS011;2826;51.354;9.588;2023-04-15T00:28:33;5.97;;;5.20;;
5608;SDS011;2826;51.354;9.588;2023-04-15T00:31:02;7.57;;;5.47;;
5608;SDS011;2826;51.354;9.588;2023-04-15T00:33:29;9.13;;;5.33;;
5608;SDS011;2826;51.354;9.588;2023-04-15T00:35:57;11.00;;;6.70;;
5608;SDS011;2826;51.354;9.588;2023-04-15T00:38:26;8.47;;;6.00;;
5608;SDS011;2826;51.354;9.588;2023-04-15T00:40:53;6.33;;;5.13;;
5608;SDS011;2826;51.354;9.588;2023-04-15T00:43:21;8.40;;;6.07;;
5608;SDS011;2826;51.354;9.588;2023-04-15T00:45:50;7.50;;;5.83;;
5608;SDS011;2826;51.354;9.588;2023-04-15T00:48:19;7.70;;;5.27;;
5608;SDS011;2826;51.354;9.588;2023-04-15T00:50:46;9.77;;;6.20;;
5608;SDS011;2826;51.354;9.588;2023-04-15T00:53:14;8.37;;;5.77;;
5608;SDS011;2826;51.354;9.588;2023-04-15T00:55:42;7.20;;;6.00;;
5608;SDS011;2826;51.354;9.588;2023-04-15T00:58:09;8.30;;;6.07;;
5608;SDS011;2826;51.354;9.588;2023-04-15T01:00:37;8.60;;;6.17;;
5608;SDS011;2826;51.354;9.588;2023-04-15T01:03:04;8.03;;;5.70;;
5608;SDS011;2826;51.354;9.588;2023-04-15T01:05:32;8.43;;;5.90;;
5608;SDS011;2826;51.354;9.588;2023-04-15T01:07:59;7.80;;;6.20;;
5608;SDS011;2826;51.354;9.588;2023-04-15T01:10:28;8.20;;;5.57;;
5608;SDS011;2826;51.354;9.588;2023-04-15T01:12:56;8.27;;;5.60;;
5608;SDS011;2826;51.354;9.588;2023-04-15T01:15:24;6.50;;;5.50;;
5608;SDS011;2826;51.354;9.588;2023-04-15T01:17:52;8.70;;;5.73;;
5608;SDS011;2826;51.354;9.588;2023-04-15T01:20:20;7.60;;;5.70;;
5608;SDS011;2826;51.354;9.588;2023-04-15T01:22:48;5.87;;;4.90;;
5608;SDS011;2826;51.354;9.588;2023-04-15T01:25:18;9.27;;;5.70;;
5608;SDS011;2826;51.354;9.588;2023-04-15T01:27:47;8.53;;;5.80;;
5608;SDS011;2826;51.354;9.588;2023-04-15T01:30:14;8.33;;;5.63;;
5608;SDS011;2826;51.354;9.588;2023-04-15T01:32:42;7.20;;;5.40;;
5608;SDS011;2826;51.354;9.588;2023-04-15T01:35:08;7.83;;;5.53;;
5608;SDS011;2826;51.354;9.588;2023-04-15T01:37:36;9.37;;;6.10;;
5608;SDS011;2826;51.354;9.588;2023-04-15T01:40:03;10.63;;;6.47;;
5608;SDS011;2826;51.354;9.588;2023-04-15T01:42:31;10.70;;;6.17;;
5608;SDS011;2826;51.354;9.588;2023-04-15T01:44:59;10.43;;;6.63;;
5608;SDS011;2826;51.354;9.588;2023-04-15T01:47:26;9.50;;;6.80;;
5608;SDS011;2826;51.354;9.588;2023-04-15T01:49:53;7.30;;;5.70;;
5608;SDS011;2826;51.354;9.588;2023-04-15T01:52:21;9.10;;;6.97;;
5608;SDS011;2826;51.354;9.588;2023-04-15T01:54:47;11.43;;;7.23;;
5608;SDS011;2826;51.354;9.588;2023-04-15T01:57:18;11.97;;;6.57;;
5608;SDS011;2826;51.354;9.588;2023-04-15T01:59:45;10.33;;;7.33;;
5608;SDS011;2826;51.354;9.588;2023-04-15T02:02:12;11.53;;;7.97;;
5608;SDS011;2826;51.354;9.588;2023-04-15T02:04:40;9.70;;;6.93;;
5608;SDS011;2826;51.354;9.588;2023-04-15T02:07:07;13.00;;;7.47;;
5608;SDS011;2826;51.354;9.588;2023-04-15T02:09:34;9.57;;;7.07;;
5608;SDS011;2826;51.354;9.588;2023-04-15T02:12:01;14.63;;;6.90;;
5608;SDS011;2826;51.354;9.588;2023-04-15T02:14:27;8.10;;;6.30;;
5608;SDS011;2826;51.354;9.588;2023-04-15T02:16:55;10.10;;;6.60;;
5608;SDS011;2826;51.354;9.588;2023-04-15T02:19:22;9.50;;;6.40;;
5608;SDS011;2826;51.354;9.588;2023-04-15T02:21:50;11.20;;;7.30;;
5608;SDS011;2826;51.354;9.588;2023-04-15T02:24:17;10.17;;;6.10;;
5608;SDS011;2826;51.354;9.588;2023-04-15T02:26:44;8.20;;;6.50;;
5608;SDS011;2826;51.354;9.588;2023-04-15T02:29:11;9.90;;;6.60;;
5608;SDS011;2826;51.354;9.588;2023-04-15T02:31:39;8.50;;;6.30;;
5608;SDS011;2826;51.354;9.588;2023-04-15T02:34:06;11.13;;;7.53;;
5608;SDS011;2826;51.354;9.588;2023-04-15T02:36:34;11.67;;;8.47;;
5608;SDS011;2826;51.354;9.588;2023-04-15T02:39:01;11.00;;;8.00;;
5608;SDS011;2826;51.354;9.588;2023-04-15T02:41:28;8.63;;;7.33;;
5608;SDS011;2826;51.354;9.588;2023-04-15T02:43:56;13.40;;;8.00;;
5608;SDS011;2826;51.354;9.588;2023-04-15T02:46:23;10.13;;;7.53;;
5608;SDS011;2826;51.354;9.588;2023-04-15T02:48:50;10.73;;;7.77;;
5608;SDS011;2826;51.354;9.588;2023-04-15T02:51:20;9.77;;;7.30;;
5608;SDS011;2826;51.354;9.588;2023-04-15T02:53:48;15.70;;;7.83;;
5608;SDS011;2826;51.354;9.588;2023-04-15T02:56:15;13.77;;;8.50;;
5608;SDS011;2826;51.354;9.588;2023-04-15T02:58:44;13.30;;;8.23;;
5608;SDS011;2826;51.354;9.588;2023-04-15T03:01:11;11.07;;;7.80;;
5608;SDS011;2826;51.354;9.588;2023-04-15T03:03:40;11.83;;;7.80;;
5608;SDS011;2826;51.354;9.588;2023-04-15T03:06:07;13.93;;;8.90;;
5608;SDS011;2826;51.354;9.588;2023-04-15T03:08:34;14.90;;;8.50;;
5608;SDS011;2826;51.354;9.588;2023-04-15T03:11:02;12.60;;;8.57;;
5608;SDS011;2826;51.354;9.588;2023-04-15T03:13:30;9.87;;;7.20;;
5608;SDS011;2826;51.354;9.588;2023-04-15T03:16:02;12.10;;;8.23;;
5608;SDS011;2826;51.354;9.588;2023-04-15T03:18:31;13.80;;;8.30;;
5608;SDS011;2826;51.354;9.588;2023-04-15T03:21:01;12.90;;;7.50;;
5608;SDS011;2826;51.354;9.588;2023-04-15T03:23:30;17.70;;;10.60;;
5608;SDS011;2826;51.354;9.588;2023-04-15T03:26:00;15.50;;;9.90;;
5608;SDS011;2826;51.354;9.588;2023-04-15T03:28:29;18.53;;;10.20;;
5608;SDS011;2826;51.354;9.588;2023-04-15T03:30:57;21.10;;;13.30;;
5608;SDS011;2826;51.354;9.588;2023-04-15T03:33:25;22.77;;;13.10;;
5608;SDS011;2826;51.354;9.588;2023-04-15T03:35:53;19.17;;;12.50;;
5608;SDS011;2826;51.354;9.588;2023-04-15T03:38:20;19.87;;;13.37;;
5608;SDS011;2826;51.354;9.588;2023-04-15T03:40:46;16.00;;;10.20;;
5608;SDS011;2826;51.354;9.588;2023-04-15T03:43:14;20.20;;;12.80;;
5608;SDS011;2826;51.354;9.588;2023-04-15T03:45:42;13.57;;;9.60;;
5608;SDS011;2826;51.354;9.588;2023-04-15T03:48:08;15.70;;;8.17;;
5608;SDS011;2826;51.354;9.588;2023-04-15T03:50:36;19.93;;;11.87;;
5608;SDS011;2826;51.354;9.588;2023-04-15T03:53:03;12.20;;;6.87;;
5608;SDS011;2826;51.354;9.588;2023-04-15T03:55:30;17.20;;;10.90;;
5608;SDS011;2826;51.354;9.588;2023-04-15T03:57:56;27.33;;;14.80;;
5608;SDS011;2826;51.354;9.588;2023-04-15T04:00:23;26.97;;;15.40;;
5608;SDS011;2826;51.354;9.588;2023-04-15T04:02:51;23.07;;;13.90;;
5608;SDS011;2826;51.354;9.588;2023-04-15T04:05:19;22.07;;;14.30;;
5608;SDS011;2826;51.354;9.588;2023-04-15T04:07:46;27.67;;;14.40;;
5608;SDS011;2826;51.354;9.588;2023-04-15T04:10:16;17.87;;;10.00;;
5608;SDS011;2826;51.354;9.588;2023-04-15T04:12:44;18.23;;;10.60;;
5608;SDS011;2826;51.354;9.588;2023-04-15T04:15:11;24.07;;;14.17;;
5608;SDS011;2826;51.354;9.588;2023-04-15T04:17:38;24.60;;;14.97;;
5608;SDS011;2826;51.354;9.588;2023-04-15T04:20:07;24.73;;;15.33;;
5608;SDS011;2826;51.354;9.588;2023-04-15T04:22:36;25.13;;;14.30;;
5608;SDS011;2826;51.354;9.588;2023-04-15T04:25:05;24.13;;;14.23;;
5608;SDS011;2826;51.354;9.588;2023-04-15T04:27:33;21.67;;;14.50;;
5608;SDS011;2826;51.354;9.588;2023-04-15T04:30:00;25.90;;;13.07;;
5608;SDS011;2826;51.354;9.588;2023-04-15T04:32:27;22.67;;;14.67;;
5608;SDS011;2826;51.354;9.588;2023-04-15T04:34:54;24.33;;;15.13;;
5608;SDS011;2826;51.354;9.588;2023-04-15T04:37:22;21.30;;;13.33;;
5608;SDS011;2826;51.354;9.588;2023-04-15T04:39:49;21.77;;;13.80;;
5608;SDS011;2826;51.354;9.588;2023-04-15T04:42:16;27.23;;;15.37;;
5608;SDS011;2826;51.354;9.588;2023-04-15T04:44:43;20.83;;;13.47;;
5608;SDS011;2826;51.354;9.588;2023-04-15T04:47:10;24.60;;;14.33;;
5608;SDS011;2826;51.354;9.588;2023-04-15T04:49:38;25.30;;;14.57;;
5608;SDS011;2826;51.354;9.588;2023-04-15T04:52:05;24.13;;;15.10;;
5608;SDS011;2826;51.354;9.588;2023-04-15T04:54:32;20.63;;;13.17;;
5608;SDS011;2826;51.354;9.588;2023-04-15T04:57:00;24.20;;;13.70;;
5608;SDS011;2826;51.354;9.588;2023-04-15T04:59:27;20.93;;;13.87;;
5608;SDS011;2826;51.354;9.588;2023-04-15T05:01:54;21.10;;;13.43;;
5608;SDS011;2826;51.354;9.588;2023-04-15T05:04:21;21.33;;;13.77;;
5608;SDS011;2826;51.354;9.588;2023-04-15T05:06:48;28.90;;;14.77;;
5608;SDS011;2826;51.354;9.588;2023-04-15T05:09:15;20.47;;;12.60;;
5608;SDS011;2826;51.354;9.588;2023-04-15T05:11:43;22.37;;;13.17;;
5608;SDS011;2826;51.354;9.588;2023-04-15T05:14:09;23.27;;;13.30;;
5608;SDS011;2826;51.354;9.588;2023-04-15T05:16:37;22.13;;;14.33;;
5608;SDS011;2826;51.354;9.588;2023-04-15T05:19:03;22.50;;;14.40;;
5608;SDS011;2826;51.354;9.588;2023-04-15T05:21:30;23.60;;;14.70;;
5608;SDS011;2826;51.354;9.588;2023-04-15T05:23:57;21.67;;;13.53;;
5608;SDS011;2826;51.354;9.588;2023-04-15T05:26:24;28.83;;;14.30;;
5608;SDS011;2826;51.354;9.588;2023-04-15T05:28:53;20.77;;;14.23;;
5608;SDS011;2826;51.354;9.588;2023-04-15T05:31:20;21.00;;;13.20;;
5608;SDS011;2826;51.354;9.588;2023-04-15T05:33:47;22.43;;;13.43;;
5608;SDS011;2826;51.354;9.588;2023-04-15T05:36:14;22.17;;;13.70;;
5608;SDS011;2826;51.354;9.588;2023-04-15T05:38:41;22.00;;;14.07;;
5608;SDS011;2826;51.354;9.588;2023-04-15T05:41:07;20.10;;;12.40;;
5608;SDS011;2826;51.354;9.588;2023-04-15T05:43:34;25.30;;;13.30;;
5608;SDS011;2826;51.354;9.588;2023-04-15T05:46:03;27.73;;;13.33;;
5608;SDS011;2826;51.354;9.588;2023-04-15T05:48:30;20.57;;;12.90;;
5608;SDS011;2826;51.354;9.588;2023-04-15T05:50:57;22.90;;;12.90;;
5608;SDS011;2826;51.354;9.588;2023-04-15T05:53:24;22.53;;;14.00;;
5608;SDS011;2826;51.354;9.588;2023-04-15T05:55:51;22.30;;;13.90;;
5608;SDS011;2826;51.354;9.588;2023-04-15T05:58:19;24.03;;;12.90;;
5608;SDS011;2826;51.354;9.588;2023-04-15T06:00:45;22.13;;;13.60;;
5608;SDS011;2826;51.354;9.588;2023-04-15T06:03:13;24.40;;;14.70;;
5608;SDS011;2826;51.354;9.588;2023-04-15T06:05:40;21.80;;;13.33;;
5608;SDS011;2826;51.354;9.588;2023-04-15T06:08:09;23.57;;;14.70;;
5608;SDS011;2826;51.354;9.588;2023-04-15T06:10:37;23.90;;;15.50;;
5608;SDS011;2826;51.354;9.588;2023-04-15T06:13:04;24.53;;;14.60;;
5608;SDS011;2826;51.354;9.588;2023-04-15T06:15:31;25.20;;;15.23;;
5608;SDS011;2826;51.354;9.588;2023-04-15T06:17:58;28.50;;;16.10;;
5608;SDS011;2826;51.354;9.588;2023-04-15T06:20:26;26.20;;;17.10;;
5608;SDS011;2826;51.354;9.588;2023-04-15T06:22:54;26.90;;;15.43;;
5608;SDS011;2826;51.354;9.588;2023-04-15T06:25:21;27.07;;;14.97;;
5608;SDS011;2826;51.354;9.588;2023-04-15T06:27:48;29.90;;;16.90;;
5608;SDS011;2826;51.354;9.588;2023-04-15T06:30:15;27.33;;;13.50;;
5608;SDS011;2826;51.354;9.588;2023-04-15T06:32:42;27.50;;;16.90;;
5608;SDS011;2826;51.354;9.588;2023-04-15T06:35:09;27.23;;;15.33;;
5608;SDS011;2826;51.354;9.588;2023-04-15T06:37:37;27.40;;;17.00;;
5608;SDS011;2826;51.354;9.588;2023-04-15T06:40:04;30.90;;;16.30;;
5608;SDS011;2826;51.354;9.588;2023-04-15T06:42:34;30.50;;;17.40;;
5608;SDS011;2826;51.354;9.588;2023-04-15T06:45:03;28.20;;;17.43;;
5608;SDS011;2826;51.354;9.588;2023-04-15T06:47:31;29.33;;;15.97;;
5608;SDS011;2826;51.354;9.588;2023-04-15T06:49:58;26.40;;;15.70;;
5608;SDS011;2826;51.354;9.588;2023-04-15T06:52:25;25.80;;;15.90;;
5608;SDS011;2826;51.354;9.588;2023-04-15T06:54:53;30.13;;;15.93;;
5608;SDS011;2826;51.354;9.588;2023-04-15T06:57:20;26.33;;;14.30;;
5608;SDS011;2826;51.354;9.588;2023-04-15T06:59:47;26.27;;;14.90;;
5608;SDS011;2826;51.354;9.588;2023-04-15T07:02:15;28.30;;;15.20;;
5608;SDS011;2826;51.354;9.588;2023-04-15T07:04:42;27.50;;;14.60;;
5608;SDS011;2826;51.354;9.588;2023-04-15T07:07:09;14.23;;;8.67;;
5608;SDS011;2826;51.354;9.588;2023-04-15T07:09:37;26.30;;;14.77;;
5608;SDS011;2826;51.354;9.588;2023-04-15T07:12:05;30.13;;;13.73;;
5608;SDS011;2826;51.354;9.588;2023-04-15T07:14:32;22.60;;;13.00;;
5608;SDS011;2826;51.354;9.588;2023-04-15T07:16:59;24.70;;;14.57;;
5608;SDS011;2826;51.354;9.588;2023-04-15T07:19:27;24.33;;;13.53;;
5608;SDS011;2826;51.354;9.588;2023-04-15T07:21:53;25.90;;;14.10;;
5608;SDS011;2826;51.354;9.588;2023-04-15T07:24:21;24.20;;;12.93;;
5608;SDS011;2826;51.354;9.588;2023-04-15T07:26:52;22.17;;;13.00;;
5608;SDS011;2826;51.354;9.588;2023-04-15T07:29:20;26.40;;;14.40;;
5608;SDS011;2826;51.354;9.588;2023-04-15T07:31:48;20.63;;;11.20;;
5608;SDS011;2826;51.354;9.588;2023-04-15T07:34:15;25.70;;;16.00;;
5608;SDS011;2826;51.354;9.588;2023-04-15T07:36:43;18.10;;;11.20;;
5608;SDS011;2826;51.354;9.588;2023-04-15T07:39:10;16.50;;;10.57;;
5608;SDS011;2826;51.354;9.588;2023-04-15T07:41:38;19.50;;;10.60;;
5608;SDS011;2826;51.354;9.588;2023-04-15T07:44:06;17.67;;;9.27;;
5608;SDS011;2826;51.354;9.588;2023-04-15T07:46:35;23.67;;;13.37;;
5608;SDS011;2826;51.354;9.588;2023-04-15T07:49:03;22.47;;;11.93;;
5608;SDS011;2826;51.354;9.588;2023-04-15T07:51:31;30.70;;;16.13;;
5608;SDS011;2826;51.354;9.588;2023-04-15T07:53:59;24.40;;;14.23;;
5608;SDS011;2826;51.354;9.588;2023-04-15T07:56:27;12.60;;;7.27;;
5608;SDS011;2826;51.354;9.588;2023-04-15T07:58:54;24.40;;;12.43;;
5608;SDS011;2826;51.354;9.588;2023-04-15T08:01:24;17.60;;;10.27;;
5608;SDS011;2826;51.354;9.588;2023-04-15T08:03:55;31.47;;;17.30;;
5608;SDS011;2826;51.354;9.588;2023-04-15T08:06:28;20.77;;;11.30;;
5608;SDS011;2826;51.354;9.588;2023-04-15T08:09:02;18.13;;;10.10;;
5608;SDS011;2826;51.354;9.588;2023-04-15T08:11:33;23.60;;;12.97;;
5608;SDS011;2826;51.354;9.588;2023-04-15T08:14:05;26.33;;;15.10;;
5608;SDS011;2826;51.354;9.588;2023-04-15T08:16:38;28.13;;;14.80;;
5608;SDS011;2826;51.354;9.588;2023-04-15T08:19:07;23.20;;;12.93;;
5608;SDS011;2826;51.354;9.588;2023-04-15T08:21:35;25.83;;;13.37;;
5608;SDS011;2826;51.354;9.588;2023-04-15T08:24:02;22.43;;;13.47;;
5608;SDS011;2826;51.354;9.588;2023-04-15T08:26:32;18.13;;;7.50;;
5608;SDS011;2826;51.354;9.588;2023-04-15T08:29:00;21.47;;;12.60;;
5608;SDS011;2826;51.354;9.588;2023-04-15T08:31:28;24.53;;;13.60;;
5608;SDS011;2826;51.354;9.588;2023-04-15T08:33:57;23.03;;;12.63;;
5608;SDS011;2826;51.354;9.588;2023-04-15T08:36:26;22.50;;;13.23;;
5608;SDS011;2826;51.354;9.588;2023-04-15T08:38:53;15.93;;;8.53;;
5608;SDS011;2826;51.354;9.588;2023-04-15T08:41:22;20.73;;;12.27;;
5608;SDS011;2826;51.354;9.588;2023-04-15T08:43:52;19.50;;;10.83;;
5608;SDS011;2826;51.354;9.588;2023-04-15T08:46:23;21.47;;;10.40;;
5608;SDS011;2826;51.354;9.588;2023-04-15T08:48:51;19.03;;;9.87;;
5608;SDS011;2826;51.354;9.588;2023-04-15T08:51:20;19.70;;;11.50;;
5608;SDS011;2826;51.354;9.588;2023-04-15T08:53:51;21.10;;;11.20;;
5608;SDS011;2826;51.354;9.588;2023-04-15T08:56:19;13.77;;;7.57;;
5608;SDS011;2826;51.354;9.588;2023-04-15T08:58:51;15.60;;;7.33;;
5608;SDS011;2826;51.354;9.588;2023-04-15T09:01:19;11.40;;;5.77;;
5608;SDS011;2826;51.354;9.588;2023-04-15T09:03:47;16.57;;;9.30;;
5608;SDS011;2826;51.354;9.588;2023-04-15T09:06:15;9.87;;;6.37;;
5608;SDS011;2826;51.354;9.588;2023-04-15T09:08:43;11.17;;;7.30;;
5608;SDS011;2826;51.354;9.588;2023-04-15T09:11:12;12.10;;;8.30;;
5608;SDS011;2826;51.354;9.588;2023-04-15T09:13:39;12.80;;;7.57;;
5608;SDS011;2826;51.354;9.588;2023-04-15T09:16:07;55.40;;;10.93;;
5608;SDS011;2826;51.354;9.588;2023-04-15T09:18:35;27.70;;;9.53;;
5608;SDS011;2826;51.354;9.588;2023-04-15T09:21:05;18.90;;;8.77;;
5608;SDS011;2826;51.354;9.588;2023-04-15T09:23:34;15.20;;;8.70;;
5608;SDS011;2826;51.354;9.588;2023-04-15T09:26:02;6.50;;;4.70;;
5608;SDS011;2826;51.354;9.588;2023-04-15T09:28:32;10.03;;;5.70;;
5608;SDS011;2826;51.354;9.588;2023-04-15T09:31:01;5.33;;;3.90;;
5608;SDS011;2826;51.354;9.588;2023-04-15T09:33:28;8.13;;;5.57;;
5608;SDS011;2826;51.354;9.588;2023-04-15T09:35:56;8.23;;;5.33;;
5608;SDS011;2826;51.354;9.588;2023-04-15T09:38:27;5.37;;;3.73;;
5608;SDS011;2826;51.354;9.588;2023-04-15T09:40:53;7.00;;;4.30;;
5608;SDS011;2826;51.354;9.588;2023-04-15T09:43:21;9.60;;;3.20;;
5608;SDS011;2826;51.354;9.588;2023-04-15T09:45:51;7.37;;;5.20;;
5608;SDS011;2826;51.354;9.588;2023-04-15T09:48:19;7.43;;;4.90;;
5608;SDS011;2826;51.354;9.588;2023-04-15T09:50:47;9.07;;;5.67;;
5608;SDS011;2826;51.354;9.588;2023-04-15T09:53:15;6.70;;;5.00;;
5608;SDS011;2826;51.354;9.588;2023-04-15T09:55:44;8.80;;;5.40;;
5608;SDS011;2826;51.354;9.588;2023-04-15T09:58:16;4.20;;;2.50;;
5608;SDS011;2826;51.354;9.588;2023-04-15T10:00:45;10.00;;;5.20;;
5608;SDS011;2826;51.354;9.588;2023-04-15T10:03:13;6.30;;;4.30;;
5608;SDS011;2826;51.354;9.588;2023-04-15T10:05:44;7.13;;;4.40;;
5608;SDS011;2826;51.354;9.588;2023-04-15T10:08:13;5.83;;;3.77;;
5608;SDS011;2826;51.354;9.588;2023-04-15T10:10:44;5.70;;;3.60;;
5608;SDS011;2826;51.354;9.588;2023-04-15T10:13:15;5.17;;;3.90;;
5608;SDS011;2826;51.354;9.588;2023-04-15T10:15:45;6.63;;;4.00;;
5608;SDS011;2826;51.354;9.588;2023-04-15T10:18:19;5.77;;;3.70;;
5608;SDS011;2826;51.354;9.588;2023-04-15T10:20:50;3.67;;;2.53;;
5608;SDS011;2826;51.354;9.588;2023-04-15T10:23:18;3.93;;;3.40;;
5608;SDS011;2826;51.354;9.588;2023-04-15T10:25:46;6.80;;;5.00;;
5608;SDS011;2826;51.354;9.588;2023-04-15T10:28:15;7.40;;;4.60;;
5608;SDS011;2826;51.354;9.588;2023-04-15T10:30:43;3.57;;;3.10;;
5608;SDS011;2826;51.354;9.588;2023-04-15T10:33:10;3.97;;;3.27;;
5608;SDS011;2826;51.354;9.588;2023-04-15T10:35:39;1.77;;;1.63;;
5608;SDS011;2826;51.354;9.588;2023-04-15T10:41:15;4.27;;;3.23;;
5608;SDS011;2826;51.354;9.588;2023-04-15T10:43:45;2.80;;;2.33;;
5608;SDS011;2826;51.354;9.588;2023-04-15T10:46:17;3.13;;;2.30;;
5608;SDS011;2826;51.354;9.588;2023-04-15T10:48:47;4.97;;;3.50;;
5608;SDS011;2826;51.354;9.588;2023-04-15T10:51:16;6.30;;;4.03;;
5608;SDS011;2826;51.354;9.588;2023-04-15T10:53:58;3.23;;;2.50;;
5608;SDS011;2826;51.354;9.588;2023-04-15T10:56:29;3.27;;;2.97;;
5608;SDS011;2826;51.354;9.588;2023-04-15T10:59:01;5.67;;;4.00;;
5608;SDS011;2826;51.354;9.588;2023-04-15T11:01:50;5.63;;;3.40;;
5608;SDS011;2826;51.354;9.588;2023-04-15T11:07:37;2.83;;;2.20;;
5608;SDS011;2826;51.354;9.588;2023-04-15T11:13:20;2.43;;;2.20;;
5608;SDS011;2826;51.354;9.588;2023-04-15T11:15:50;5.13;;;3.37;;
5608;SDS011;2826;51.354;9.588;2023-04-15T11:18:22;5.23;;;4.00;;
5608;SDS011;2826;51.354;9.588;2023-04-15T11:20:54;5.77;;;3.97;;
5608;SDS011;2826;51.354;9.588;2023-04-15T11:23:33;5.13;;;3.80;;
5608;SDS011;2826;51.354;9.588;2023-04-15T11:26:03;4.20;;;3.20;;
5608;SDS011;2826;51.354;9.588;2023-04-15T11:28:34;4.27;;;3.10;;
5608;SDS011;2826;51.354;9.588;2023-04-15T11:31:05;3.73;;;3.20;;
5608;SDS011;2826;51.354;9.588;2023-04-15T11:33:35;4.23;;;3.40;;
5608;SDS011;2826;51.354;9.588;2023-04-15T11:36:03;5.00;;;3.90;;
5608;SDS011;2826;51.354;9.588;2023-04-15T11:38:32;5.40;;;3.63;;
5608;SDS011;2826;51.354;9.588;2023-04-15T11:41:00;29.13;;;5.97;;
5608;SDS011;2826;51.354;9.588;2023-04-15T11:43:28;4.30;;;3.10;;
5608;SDS011;2826;51.354;9.588;2023-04-15T11:45:59;4.33;;;3.70;;
5608;SDS011;2826;51.354;9.588;2023-04-15T11:48:28;4.17;;;3.40;;
5608;SDS011;2826;51.354;9.588;2023-04-15T11:50:57;4.40;;;3.70;;
5608;SDS011;2826;51.354;9.588;2023-04-15T11:53:35;3.80;;;3.40;;
5608;SDS011;2826;51.354;9.588;2023-04-15T11:56:04;5.00;;;3.80;;
5608;SDS011;2826;51.354;9.588;2023-04-15T11:58:33;8.43;;;4.37;;
5608;SDS011;2826;51.354;9.588;2023-04-15T12:01:02;3.57;;;2.67;;
5608;SDS011;2826;51.354;9.588;2023-04-15T12:03:35;6.00;;;3.70;;
5608;SDS011;2826;51.354;9.588;2023-04-15T12:06:04;4.47;;;4.00;;
5608;SDS011;2826;51.354;9.588;2023-04-15T12:08:56;6.43;;;4.53;;
5608;SDS011;2826;51.354;9.588;2023-04-15T12:11:30;5.20;;;3.60;;
5608;SDS011;2826;51.354;9.588;2023-04-15T12:14:09;5.77;;;4.20;;
5608;SDS011;2826;51.354;9.588;2023-04-15T12:16:39;3.23;;;2.93;;
5608;SDS011;2826;51.354;9.588;2023-04-15T12:19:09;6.40;;;4.83;;
5608;SDS011;2826;51.354;9.588;2023-04-15T12:21:40;6.40;;;4.77;;
5608;SDS011;2826;51.354;9.588;2023-04-15T12:24:11;6.17;;;4.43;;
5608;SDS011;2826;51.354;9.588;2023-04-15T12:26:43;6.47;;;5.17;;
5608;SDS011;2826;51.354;9.588;2023-04-15T12:29:14;7.53;;;5.40;;
5608;SDS011;2826;51.354;9.588;2023-04-15T12:31:46;8.50;;;5.00;;
5608;SDS011;2826;51.354;9.588;2023-04-15T12:34:16;6.03;;;4.10;;
5608;SDS011;2826;51.354;9.588;2023-04-15T12:36:46;9.47;;;6.03;;
5608;SDS011;2826;51.354;9.588;2023-04-15T12:39:20;7.03;;;5.20;;
5608;SDS011;2826;51.354;9.588;2023-04-15T12:41:49;8.90;;;6.10;;
5608;SDS011;2826;51.354;9.588;2023-04-15T12:44:17;8.73;;;6.23;;
5608;SDS011;2826;51.354;9.588;2023-04-15T12:46:44;8.23;;;5.83;;
5608;SDS011;2826;51.354;9.588;2023-04-15T12:49:12;8.13;;;5.97;;
5608;SDS011;2826;51.354;9.588;2023-04-15T12:51:41;10.67;;;7.20;;
5608;SDS011;2826;51.354;9.588;2023-04-15T12:54:08;9.63;;;6.60;;
5608;SDS011;2826;51.354;9.588;2023-04-15T12:56:36;8.50;;;5.97;;
5608;SDS011;2826;51.354;9.588;2023-04-15T12:59:03;11.00;;;6.80;;
5608;SDS011;2826;51.354;9.588;2023-04-15T13:01:31;7.17;;;4.93;;
5608;SDS011;2826;51.354;9.588;2023-04-15T13:03:59;10.13;;;6.37;;
5608;SDS011;2826;51.354;9.588;2023-04-15T13:06:27;8.27;;;5.37;;
5608;SDS011;2826;51.354;9.588;2023-04-15T13:08:54;8.37;;;6.57;;
5608;SDS011;2826;51.354;9.588;2023-04-15T13:11:21;9.40;;;6.17;;
5608;SDS011;2826;51.354;9.588;2023-04-15T13:13:49;10.47;;;5.87;;
5608;SDS011;2826;51.354;9.588;2023-04-15T13:16:17;4.37;;;3.73;;
5608;SDS011;2826;51.354;9.588;2023-04-15T13:18:47;10.67;;;7.47;;
5608;SDS011;2826;51.354;9.588;2023-04-15T13:21:15;12.23;;;6.50;;
5608;SDS011;2826;51.354;9.588;2023-04-15T13:23:45;9.27;;;6.20;;
5608;SDS011;2826;51.354;9.588;2023-04-15T13:26:14;9.20;;;6.87;;
5608;SDS011;2826;51.354;9.588;2023-04-15T13:28:45;12.07;;;7.70;;
5608;SDS011;2826;51.354;9.588;2023-04-15T13:31:14;8.47;;;5.83;;
5608;SDS011;2826;51.354;9.588;2023-04-15T13:33:41;8.47;;;5.37;;
5608;SDS011;2826;51.354;9.588;2023-04-15T13:36:09;11.90;;;7.00;;
5608;SDS011;2826;51.354;9.588;2023-04-15T13:38:37;12.10;;;8.10;;
5608;SDS011;2826;51.354;9.588;2023-04-15T13:41:04;9.27;;;6.60;;
5608;SDS011;2826;51.354;9.588;2023-04-15T13:43:33;13.10;;;7.10;;
5608;SDS011;2826;51.354;9.588;2023-04-15T13:46:00;10.93;;;6.70;;
5608;SDS011;2826;51.354;9.588;2023-04-15T13:48:29;12.47;;;8.50;;
5608;SDS011;2826;51.354;9.588;2023-04-15T13:50:57;15.57;;;9.23;;
5608;SDS011;2826;51.354;9.588;2023-04-15T13:53:24;13.10;;;8.50;;
5608;SDS011;2826;51.354;9.588;2023-04-15T13:55:53;14.20;;;8.13;;
5608;SDS011;2826;51.354;9.588;2023-04-15T13:58:21;13.80;;;8.93;;
5608;SDS011;2826;51.354;9.588;2023-04-15T14:00:48;15.70;;;9.13;;
5608;SDS011;2826;51.354;9.588;2023-04-15T14:03:16;18.33;;;10.10;;
5608;SDS011;2826;51.354;9.588;2023-04-15T14:05:45;20.90;;;10.40;;
5608;SDS011;2826;51.354;9.588;2023-04-15T14:08:13;15.40;;;10.30;;
5608;SDS011;2826;51.354;9.588;2023-04-15T14:10:42;20.03;;;10.10;;
5608;SDS011;2826;51.354;9.588;2023-04-15T14:13:13;17.93;;;9.53;;
5608;SDS011;2826;51.354;9.588;2023-04-15T14:15:41;13.50;;;9.10;;
5608;SDS011;2826;51.354;9.588;2023-04-15T14:18:08;14.00;;;7.57;;
5608;SDS011;2826;51.354;9.588;2023-04-15T14:20:35;16.57;;;9.17;;
5608;SDS011;2826;51.354;9.588;2023-04-15T14:23:04;15.20;;;8.77;;
5608;SDS011;2826;51.354;9.588;2023-04-15T14:25:31;22.23;;;10.20;;
5608;SDS011;2826;51.354;9.588;2023-04-15T14:27:59;18.93;;;9.67;;
5608;SDS011;2826;51.354;9.588;2023-04-15T14:30:27;19.33;;;10.93;;
5608;SDS011;2826;51.354;9.588;2023-04-15T14:32:59;23.13;;;11.67;;
5608;SDS011;2826;51.354;9.588;2023-04-15T14:35:27;19.57;;;10.33;;
5608;SDS011;2826;51.354;9.588;2023-04-15T14:38:08;16.07;;;9.53;;
5608;SDS011;2826;51.354;9.588;2023-04-15T14:40:37;21.93;;;11.00;;
5608;SDS011;2826;51.354;9.588;2023-04-15T14:43:07;19.50;;;10.97;;
5608;SDS011;2826;51.354;9.588;2023-04-15T14:45:34;23.70;;;12.87;;
5608;SDS011;2826;51.354;9.588;2023-04-15T14:48:03;22.63;;;12.33;;
5608;SDS011;2826;51.354;9.588;2023-04-15T14:50:34;18.27;;;10.50;;
5608;SDS011;2826;51.354;9.588;2023-04-15T14:53:02;26.53;;;13.60;;
5608;SDS011;2826;51.354;9.588;2023-04-15T14:55:31;24.63;;;13.40;;
5608;SDS011;2826;51.354;9.588;2023-04-15T14:57:58;27.57;;;11.93;;
5608;SDS011;2826;51.354;9.588;2023-04-15T15:00:26;24.83;;;11.30;;
5608;SDS011;2826;51.354;9.588;2023-04-15T15:02:53;18.40;;;8.47;;
5608;SDS011;2826;51.354;9.588;2023-04-15T15:05:20;36.10;;;13.13;;
5608;SDS011;2826;51.354;9.588;2023-04-15T15:07:48;16.47;;;9.93;;
5608;SDS011;2826;51.354;9.588;2023-04-15T15:10:15;29.20;;;10.37;;
5608;SDS011;2826;51.354;9.588;2023-04-15T15:12:43;23.20;;;11.90;;
5608;SDS011;2826;51.354;9.588;2023-04-15T15:15:10;52.07;;;13.43;;
5608;SDS011;2826;51.354;9.588;2023-04-15T15:17:37;22.30;;;13.87;;